Daily Meteorological Summary

Last 30 Days

Daily Data | America/Los_Angeles
as of 8/12/22 2:49 PM PDT
Date Daily Max Temp (°F) Time of Max Temp Daily Min Temp (°F) Time of Min Temp Daily Rain (In) Seasonal Rainfall (In) Wind Spd (mph) Daily Max Wind (mph) Time of Max Wind Max Wind Dir (°) Dew Pt (°F) Max RH (%) Min RH (%) Upper Max Temp (°F) Max Upper Temp Time Upper Min Temp (°F) Min Upper Temp Time Max Temp Inversion (°F) Time of Max Temp Inversion Min Temp Inversion (°F) Time of Min Temp Inversion Max 1 Min Rain (In) Max 1 Min Rain Time Max 15 Min Rain (In) Max 15 Min Precip Time Max 60 Min Rain (In) Max 60 Min Rain Time MinBV Day (V)
8/11/22 98.8 1604 65.3 0556 0.00 0.09 2.1 14.5 1011 SSW | 199 57.7 83 20 96.8 1727 68.4 0648 10.1 2151 -6.4 1208 - - - - - - 12.4
8/10/22 96.6 1602 64.6 0638 0.00 0.09 2.3 12.7 1148 SW | 217 57.3 76 23 93.6 1814 66.0 0612 8.8 2113 -6.0 1444 - - - - - - 12.5
8/9/22 98.7 1559 68.9 0656 0.00 0.09 1.9 13.2 1102 SW | 219 59.9 79 22 97.0 1659 70.4 0652 8.9 2027 -5.7 1135 - - - - - - 12.5
8/8/22 98.3 1614 68.0 0716 0.00 0.09 2.3 14.7 1024 SW | 222 59.0 78 21 96.3 1744 70.7 0636 7.4 2334 -6.1 1202 - - - - - - 12.5
8/7/22 99.5 1604 66.3 0611 0.00 0.09 2.3 13.8 1038 SW | 222 61.6 83 27 96.4 1812 68.3 0616 5.7 2052 -6.7 1135 - - - - - - 12.5
8/6/22 99.5 1611 66.6 0605 0.00 0.09 2.2 13.4 1059 SW | 219 63.5 89 28 95.7 1659 68.0 0633 5.6 0044 -6.7 1207 - - - - - - 12.5
8/5/22 92.5 1746 68.0 0620 0.09 0.09 1.6 8.8 0230 NE | 41 64.1 90 27 92.2 1723 69.9 0758 4.6 2033 -2.5 1356 0.01 0823 0.02 0644 0.05 0649 12.5
8/4/22 104.8 1423 74.2 0434 0.00 0.00 2.8 20.0 1724 NE | 34 62.2 75 21 100.2 1430 78.1 0648 8.6 0130 -6.0 1354 - - - - - - 12.4
8/3/22 104.4 1547 71.2 0603 0.00 0.00 2.2 13.4 1026 SW | 219 62.4 77 20 101.3 1626 75.0 0625 9.6 2230 -6.1 1228 - - - - - - 12.5
8/2/22 100.7 1606 70.2 0532 0.00 0.00 2.2 13.8 1033 SW | 221 60.3 71 24 98.7 1813 72.2 0612 8.7 2233 -5.8 1155 - - - - - - 12.4
8/1/22 103.7 1615 72.2 0354 0.00 0.00 2.1 15.3 1820 WNW | 291 62.9 93 21 99.5 1712 77.6 0059 10.3 0306 -6.8 1429 - - - - - - 12.5
7/31/22 103.8 1503 76.8 0635 0.00 0.00 2.4 17.5 1907 SSE | 160 60.1 70 13 99.8 1502 78.4 0729 5.6 0037 -6.7 1303 - - - - - - 12.5
7/30/22 105.6 1513 72.2 0531 0.00 0.00 2.1 13.4 1720 WNW | 290 60.8 72 17 102.6 1643 74.0 0500 8.9 0101 -6.7 1432 - - - - - - 12.5
7/29/22 106.7 1607 66.9 0549 0.00 0.00 1.9 10.7 1351 NW | 310 56.7 76 14 102.8 1806 72.3 0531 12.0 2309 -6.4 1610 - - - - - - 12.5
7/28/22 102.3 1436 69.3 0609 0.00 0.00 1.7 12.3 1118 WSW | 248 56.4 79 14 101.1 1638 74.4 0512 10.9 2348 -5.5 1150 - - - - - - 12.5
7/27/22 97.5 1637 66.1 0541 0.00 0.00 2.1 14.9 1122 SW | 222 55.9 83 17 98.1 1724 68.8 0643 7.4 0112 -5.7 1057 - - - - - - 12.5
7/26/22 101.5 1604 66.7 0618 0.00 0.00 2.3 11.4 1240 SW | 232 54.5 75 13 100.2 1703 70.3 0641 9.4 0121 -5.8 1216 - - - - - - 12.4
7/25/22 104.2 1543 62.5 0615 0.00 0.00 2.0 13.2 1229 W | 267 51.2 70 11 100.8 1730 68.6 0528 11.1 0119 -7.5 1150 - - - - - - 12.4
7/24/22 105.1 1603 61.0 0553 0.00 0.00 1.9 11.4 1143 WSW | 245 47.3 69 8 101.6 1740 67.1 0552 12.0 0205 -6.9 1152 - - - - - - 12.4
7/23/22 102.5 1539 61.4 0617 0.00 0.00 1.7 11.6 1501 SW | 220 43.1 75 6 99.9 1824 66.6 0604 14.9 0103 -6.4 1508 - - - - - - 12.4
7/22/22 105.1 1613 62.3 0530 0.00 0.00 2.4 13.8 1635 WNW | 295 47.2 68 9 102.1 1717 66.4 0517 13.5 0059 -6.7 1347 - - - - - - 12.4
7/21/22 105.6 1604 64.9 0605 0.00 0.00 2.3 16.0 1529 W | 261 48.9 74 10 102.3 1801 69.1 0614 13.3 0016 -6.9 1302 - - - - - - 12.5
7/20/22 106.4 1549 66.6 0542 0.00 0.00 2.4 14.5 0950 SW | 235 53.1 79 11 103.2 1729 70.6 0606 10.5 0031 -5.6 1233 - - - - - - 12.4
7/19/22 104.5 1545 67.1 0609 0.00 0.00 2.1 13.8 1147 SW | 214 55.1 75 14 102.6 1732 71.8 0620 12.3 2051 -5.3 1135 - - - - - - 12.5
7/18/22 107.8 1624 70.7 0609 0.00 0.00 1.9 13.2 1735 WNW | 289 54.9 70 10 104.3 1527 74.1 0622 12.7 2231 -5.7 1624 - - - - - - 12.5
7/17/22 111.6 1543 70.7 0611 0.00 0.00 2.0 11.2 1339 SW | 222 56.6 70 11 107.5 1558 74.8 0608 11.3 0142 -6.8 1459 - - - - - - 12.5
7/16/22 108.9 1602 68.5 0601 0.00 0.00 2.2 12.1 0944 WSW | 240 57.0 75 12 105.5 1701 72.6 0619 10.6 0023 -7.4 1435 - - - - - - 12.5
7/15/22 107.1 1622 67.9 0556 0.00 0.00 2.3 14.2 1120 SW | 227 57.8 77 14 103.6 1643 71.4 0559 8.5 0010 -7.4 1227 - - - - - - 12.5
7/14/22 104.0 1551 64.1 0551 0.00 0.00 2.3 13.8 0956 S | 190 57.4 83 18 102.2 1722 68.1 0502 9.9 0104 -6.3 1357 - - - - - - 12.5
7/13/22 101.7 1616 65.1 0616 0.00 0.00 2.2 13.4 1334 NNW | 329 55.5 77 18 98.8 1723 68.6 0626 9.9 0010 -6.2 1418 - - - - - - 12.5
Max 111.6 - 76.8 - 0.09 0.09 2.8 20.0 - - 64.1 93 28 107.5 - 78.4 - 14.9 - -2.5 - - - - - - - 12.5
Avg - - - - - - 2.1 - - - 56.7 - - - - - - - - - - - - - - - - -
Min 92.5 - 61.0 - 0.00 0.00 1.6 8.8 - - 43.1 68 6 92.2 - 66.0 - 4.6 - -7.5 - - - - - - - 12.4